Time;durP1;ratioP1;P1;durP2;ratioP2;P2;SDS_P1;SDS_P2;PMS_P1;PMS_P2;Temp;Humidity;BMP_temperature;BMP_pressure;BME280_temperature;BME280_humidity;BME280_pressure;Samples;Min_cycle;Max_cycle;Signal;HPM_P1;HPM_P2
2022/12/31 00:02:06;;;;;;;;;;;;;;;10.42;100;100246.8;;;;-73
2022/12/31 00:07:06;;;;;;;;;;;;;;;10.45;100;100235.2;;;;-73
2022/12/31 00:12:06;;;;;;;;;;;;;;;10.42;100;100235.5;;;;-73
2022/12/31 00:17:06;;;;;;;;;;;;;;;10.41;100;100226.9;;;;-73
2022/12/31 00:22:06;;;;;;;;;;;;;;;10.41;100;100235.3;;;;-73
2022/12/31 00:24:51;;;;;;;8;2.4;;;;;;;;;;;;;-73
2022/12/31 00:27:06;;;;;;;;;;;;;;;10.41;100;100241.9;;;;-73
2022/12/31 00:32:06;;;;;;;;;;;;;;;10.37;100;100248.4;;;;-73
2022/12/31 00:37:06;;;;;;;;;;;;;;;10.38;100;100257;;;;-73
2022/12/31 00:42:06;;;;;;;;;;;;;;;10.38;100;100258.3;;;;-73
2022/12/31 00:47:06;;;;;;;;;;;;;;;10.34;100;100271.3;;;;-74
2022/12/31 00:52:06;;;;;;;;;;;;;;;10.34;100;100270.9;;;;-74
2022/12/31 00:54:52;;;;;;;9;2.3;;;;;;;;;;;;;-74
2022/12/31 00:57:06;;;;;;;;;;;;;;;10.32;100;100268.8;;;;-75
2022/12/31 01:02:06;;;;;;;;;;;;;;;10.27;100;100256.9;;;;-75
2022/12/31 01:07:06;;;;;;;;;;;;;;;10.24;100;100269.5;;;;-75
2022/12/31 01:12:06;;;;;;;;;;;;;;;10.19;100;100252.7;;;;-75
2022/12/31 01:17:06;;;;;;;;;;;;;;;10.14;100;100253.7;;;;-75
2022/12/31 01:22:06;;;;;;;;;;;;;;;10.12;100;100251.2;;;;-75
2022/12/31 01:24:53;;;;;;;4.6;0.8;;;;;;;;;;;;;-75
2022/12/31 01:27:06;;;;;;;;;;;;;;;10.1;100;100251.1;;;;-75
2022/12/31 01:32:07;;;;;;;;;;;;;;;10.09;100;100250.3;;;;-75
2022/12/31 01:37:06;;;;;;;;;;;;;;;10.09;100;100268.4;;;;-75
2022/12/31 01:42:06;;;;;;;;;;;;;;;10.08;100;100268.5;;;;-75
2022/12/31 01:47:07;;;;;;;;;;;;;;;10.09;100;100247.6;;;;-75
2022/12/31 01:52:10;;;;;;;;;;;;;;;10.06;100;100233.3;;;;-75
2022/12/31 01:55:04;;;;;;;7.8;1.2;;;;;;;;;;;;;-75
2022/12/31 01:57:06;;;;;;;;;;;;;;;10.06;100;100242.5;;;;-75
2022/12/31 02:02:06;;;;;;;;;;;;;;;10.04;100;100240.2;;;;-75
2022/12/31 02:07:07;;;;;;;;;;;;;;;10.01;100;100232.3;;;;-75
2022/12/31 02:12:06;;;;;;;;;;;;;;;9.99;100;100241.8;;;;-75
2022/12/31 02:17:11;;;;;;;;;;;;;;;9.98;100;100245;;;;-75
2022/12/31 02:22:10;;;;;;;;;;;;;;;9.96;100;100251;;;;-74
2022/12/31 02:25:03;;;;;;;8.6;1.3;;;;;;;;;;;;;-75
2022/12/31 02:27:09;;;;;;;;;;;;;;;9.93;100;100254.3;;;;-75
2022/12/31 02:32:10;;;;;;;;;;;;;;;9.91;100;100265.7;;;;-79
2022/12/31 02:37:07;;;;;;;;;;;;;;;9.9;100;100274;;;;-79
2022/12/31 02:42:06;;;;;;;;;;;;;;;9.89;100;100263.1;;;;-79
2022/12/31 02:47:16;;;;;;;;;;;;;;;9.89;100;100259.7;;;;-80
2022/12/31 02:52:09;;;;;;;;;;;;;;;9.91;100;100249.3;;;;-80
2022/12/31 02:54:58;;;;;;;6.2;1;;;;;;;;;;;;;-81
2022/12/31 02:57:09;;;;;;;;;;;;;;;9.91;100;100260;;;;-80
2022/12/31 03:02:18;;;;;;;;;;;;;;;9.92;100;100258;;;;-80
2022/12/31 03:07:08;;;;;;;;;;;;;;;9.91;100;100271.3;;;;-80
2022/12/31 03:17:06;;;;;;;;;;;;;;;9.92;100;100283.1;;;;-80
2022/12/31 03:27:06;;;;;;;;;;;;;;;9.93;100;100274.2;;;;-80
2022/12/31 03:32:06;;;;;;;;;;;;;;;9.95;100;100277.5;;;;-75
2022/12/31 03:37:06;;;;;;;;;;;;;;;9.95;100;100266;;;;-75
2022/12/31 03:42:06;;;;;;;;;;;;;;;9.96;100;100259.1;;;;-74
2022/12/31 03:47:06;;;;;;;;;;;;;;;9.97;100;100275.3;;;;-74
2022/12/31 03:52:07;;;;;;;;;;;;;;;9.97;100;100259.2;;;;-75
2022/12/31 03:54:57;;;;;;;5;1.3;;;;;;;;;;;;;-75
2022/12/31 03:57:06;;;;;;;;;;;;;;;9.96;100;100253.9;;;;-75
2022/12/31 04:02:07;;;;;;;;;;;;;;;9.95;100;100253.8;;;;-75
2022/12/31 04:07:06;;;;;;;;;;;;;;;9.92;100;100244.3;;;;-74
2022/12/31 04:12:06;;;;;;;;;;;;;;;9.9;100;100250;;;;-75
2022/12/31 04:17:06;;;;;;;;;;;;;;;9.85;100;100238.2;;;;-74
2022/12/31 04:22:06;;;;;;;;;;;;;;;9.84;100;100244.6;;;;-74
2022/12/31 04:24:58;;;;;;;6;1.2;;;;;;;;;;;;;-75
2022/12/31 04:27:06;;;;;;;;;;;;;;;9.81;100;100251.2;;;;-75
2022/12/31 04:32:06;;;;;;;;;;;;;;;9.78;100;100242.2;;;;-75
2022/12/31 04:37:06;;;;;;;;;;;;;;;9.74;100;100243.3;;;;-75
2022/12/31 04:42:06;;;;;;;;;;;;;;;9.72;100;100248.2;;;;-76
2022/12/31 04:47:06;;;;;;;;;;;;;;;9.69;100;100255.1;;;;-76
2022/12/31 04:52:06;;;;;;;;;;;;;;;9.68;100;100265.2;;;;-76
2022/12/31 04:54:59;;;;;;;4.4;0.8;;;;;;;;;;;;;-77
2022/12/31 04:57:06;;;;;;;;;;;;;;;9.64;100;100269.3;;;;-76
2022/12/31 05:02:06;;;;;;;;;;;;;;;9.62;100;100273.4;;;;-76
2022/12/31 05:07:06;;;;;;;;;;;;;;;9.61;100;100279;;;;-77
2022/12/31 05:12:06;;;;;;;;;;;;;;;9.58;100;100270.3;;;;-79
2022/12/31 05:17:06;;;;;;;;;;;;;;;9.56;100;100268;;;;-77
2022/12/31 05:25:01;;;;;;;2.8;0.9;;;;;;;;;;;;;-76
2022/12/31 05:27:06;;;;;;;;;;;;;;;9.55;100;100280.4;;;;-78
2022/12/31 05:32:06;;;;;;;;;;;;;;;9.55;100;100281.2;;;;-77
2022/12/31 05:37:06;;;;;;;;;;;;;;;9.53;100;100274.6;;;;-77
2022/12/31 05:42:06;;;;;;;;;;;;;;;9.52;100;100281.2;;;;-76
2022/12/31 05:47:07;;;;;;;;;;;;;;;9.52;100;100272.4;;;;-77
2022/12/31 05:52:08;;;;;;;;;;;;;;;9.52;100;100274.2;;;;-77
2022/12/31 05:55:01;;;;;;;2.9;1.3;;;;;;;;;;;;;-76
2022/12/31 05:57:06;;;;;;;;;;;;;;;9.51;100;100271.6;;;;-78
2022/12/31 06:02:06;;;;;;;;;;;;;;;9.5;100;100261.3;;;;-77
2022/12/31 06:07:06;;;;;;;;;;;;;;;9.49;100;100265.7;;;;-77
2022/12/31 06:12:06;;;;;;;;;;;;;;;9.5;100;100268.5;;;;-75
2022/12/31 06:17:06;;;;;;;;;;;;;;;9.5;100;100262.7;;;;-76
2022/12/31 06:22:06;;;;;;;;;;;;;;;9.48;100;100267.6;;;;-77
2022/12/31 06:25:01;;;;;;;3.8;1.8;;;;;;;;;;;;;-76
2022/12/31 06:27:09;;;;;;;;;;;;;;;9.5;100;100262.1;;;;-76
2022/12/31 06:32:07;;;;;;;;;;;;;;;9.5;100;100276.1;;;;-77
2022/12/31 06:37:06;;;;;;;;;;;;;;;9.51;100;100272.9;;;;-78
2022/12/31 06:42:06;;;;;;;;;;;;;;;9.52;100;100270.8;;;;-78
2022/12/31 06:47:06;;;;;;;;;;;;;;;9.53;100;100266.5;;;;-77
2022/12/31 06:52:07;;;;;;;;;;;;;;;9.56;100;100271.3;;;;-76
2022/12/31 06:55:03;;;;;;;4.1;2.4;;;;;;;;;;;;;-77
2022/12/31 06:57:07;;;;;;;;;;;;;;;9.58;100;100270;;;;-76
2022/12/31 07:02:17;;;;;;;;;;;;;;;9.6;100;100265.1;;;;-76
2022/12/31 07:07:10;;;;;;;;;;;;;;;9.62;100;100263.7;;;;-76
2022/12/31 07:12:13;;;;;;;;;;;;;;;9.65;100;100265;;;;-76
2022/12/31 07:22:29;;;;;;;;;;;;;;;9.81;100;100257.4;;;;-83
2022/12/31 07:25:22;;;;;;;;;;;;;;;9.94;100;100265.3;;;;-81
2022/12/31 07:28:51;;;;;;;;;;;;;;;9.93;100;100264.5;;;;-80
2022/12/31 07:33:50;;;;;;;;;;;;;;;10.07;100;100270.3;;;;-76
2022/12/31 07:38:51;;;;;;;;;;;;;;;10.17;100;100263.8;;;;-77
2022/12/31 07:43:51;;;;;;;;;;;;;;;10.34;100;100275.8;;;;-76
2022/12/31 07:48:44;;;;;;;;;;;;;;;10.46;100;100274.1;;;;-76
2022/12/31 07:53:47;;;;;;;;;;;;;;;10.65;100;100276.2;;;;-77
2022/12/31 07:55:04;;;;;;;3.3;0.9;;;;;;;;;;;;;-75
2022/12/31 07:58:52;;;;;;;;;;;;;;;10.79;100;100278.3;;;;-76
2022/12/31 08:03:51;;;;;;;;;;;;;;;10.83;100;100269;;;;-77
2022/12/31 08:08:52;;;;;;;;;;;;;;;10.86;100;100282.8;;;;-76
2022/12/31 08:13:45;;;;;;;;;;;;;;;10.91;100;100267.8;;;;-77
2022/12/31 08:18:44;;;;;;;;;;;;;;;10.94;100;100278.9;;;;-76
2022/12/31 08:23:50;;;;;;;;;;;;;;;11;100;100301.4;;;;-76
2022/12/31 08:25:08;;;;;;;3;0.6;;;;;;;;;;;;;-76
2022/12/31 08:28:58;;;;;;;;;;;;;;;11.05;100;100295.1;;;;-78
2022/12/31 08:33:50;;;;;;;;;;;;;;;11.06;100;100284.1;;;;-76
2022/12/31 08:38:50;;;;;;;;;;;;;;;11.03;100;100278.7;;;;-77
2022/12/31 08:43:51;;;;;;;;;;;;;;;11.11;100;100302.1;;;;-77
2022/12/31 08:48:47;;;;;;;;;;;;;;;11.09;100;100314.6;;;;-77
2022/12/31 08:53:44;;;;;;;;;;;;;;;11.12;100;100318.8;;;;-77
2022/12/31 08:55:06;;;;;;;7.1;1;;;;;;;;;;;;;-77
2022/12/31 08:58:50;;;;;;;;;;;;;;;11.12;100;100325.3;;;;-76
2022/12/31 09:03:57;;;;;;;;;;;;;;;11.14;100;100342.5;;;;-77
2022/12/31 09:08:50;;;;;;;;;;;;;;;11.2;100;100343.1;;;;-76
2022/12/31 09:13:51;;;;;;;;;;;;;;;11.23;100;100355.2;;;;-78
2022/12/31 09:18:45;;;;;;;;;;;;;;;11.26;100;100396.5;;;;-76
2022/12/31 09:23:44;;;;;;;;;;;;;;;11.3;100;100377.5;;;;-77
2022/12/31 09:25:08;;;;;;;6.4;1.1;;;;;;;;;;;;;-75
2022/12/31 09:28:50;;;;;;;;;;;;;;;11.35;100;100375.4;;;;-77
2022/12/31 09:33:51;;;;;;;;;;;;;;;11.4;100;100401.3;;;;-77
2022/12/31 09:38:51;;;;;;;;;;;;;;;11.45;100;100406.9;;;;-77
2022/12/31 09:44:04;;;;;;;;;;;;;;;11.54;100;100398.6;;;;-76
2022/12/31 09:49:01;;;;;;;;;;;;;;;11.54;100;100399.8;;;;-78
2022/12/31 09:53:52;;;;;;;;;;;;;;;11.59;100;100403.6;;;;-77
2022/12/31 09:55:16;;;;;;;8.5;1.2;;;;;;;;;;;;;-76
2022/12/31 09:58:46;;;;;;;;;;;;;;;11.59;100;100406.3;;;;-76
2022/12/31 10:03:59;;;;;;;;;;;;;;;11.61;100;100422.2;;;;-76
2022/12/31 10:08:52;;;;;;;;;;;;;;;11.67;100;100422.4;;;;-75
2022/12/31 10:13:49;;;;;;;;;;;;;;;11.72;100;100432;;;;-76
2022/12/31 10:18:53;;;;;;;;;;;;;;;11.78;100;100455.5;;;;-83
2022/12/31 10:23:55;;;;;;;;;;;;;;;11.79;100;100451.4;;;;-83
2022/12/31 10:25:33;;;;;;;8.1;0.9;;;;;;;;;;;;;-83
2022/12/31 10:28:49;;;;;;;;;;;;;;;11.75;100;100451.1;;;;-83
2022/12/31 10:33:46;;;;;;;;;;;;;;;11.76;100;100442;;;;-78
2022/12/31 10:38:55;;;;;;;;;;;;;;;11.71;100;100449.5;;;;-79
2022/12/31 10:43:59;;;;;;;;;;;;;;;11.66;100;100448.4;;;;-77
2022/12/31 10:49:04;;;;;;;;;;;;;;;11.63;100;100447;;;;-77
2022/12/31 10:53:53;;;;;;;;;;;;;;;11.65;100;100448.9;;;;-76
2022/12/31 10:55:25;;;;;;;7.6;1.4;;;;;;;;;;;;;-76
2022/12/31 10:58:53;;;;;;;;;;;;;;;11.72;100;100466;;;;-76
2022/12/31 11:04:02;;;;;;;;;;;;;;;11.79;100;100449.7;;;;-75
2022/12/31 11:08:56;;;;;;;;;;;;;;;11.88;100;100450;;;;-77
2022/12/31 11:13:54;;;;;;;;;;;;;;;11.93;100;100470.1;;;;-76
2022/12/31 11:18:50;;;;;;;;;;;;;;;11.97;100;100455.5;;;;-76
2022/12/31 11:23:51;;;;;;;;;;;;;;;11.98;100;100443;;;;-76
2022/12/31 11:25:19;;;;;;;10.1;1.1;;;;;;;;;;;;;-76
2022/12/31 11:29:04;;;;;;;;;;;;;;;11.97;100;100466.1;;;;-77
2022/12/31 11:33:51;;;;;;;;;;;;;;;11.96;100;100454.7;;;;-77
2022/12/31 11:38:48;;;;;;;;;;;;;;;11.95;100;100453.6;;;;-75
2022/12/31 11:43:51;;;;;;;;;;;;;;;11.94;100;100443.1;;;;-77
2022/12/31 11:48:47;;;;;;;;;;;;;;;11.95;100;100454.9;;;;-78
2022/12/31 11:53:56;;;;;;;;;;;;;;;11.94;100;100458.2;;;;-75
2022/12/31 11:55:27;;;;;;;6.1;1;;;;;;;;;;;;;-76
2022/12/31 11:58:45;;;;;;;;;;;;;;;11.95;100;100457.2;;;;-77
2022/12/31 12:03:45;;;;;;;;;;;;;;;11.95;100;100456.6;;;;-77
2022/12/31 12:08:48;;;;;;;;;;;;;;;11.96;100;100460.9;;;;-77
2022/12/31 12:13:44;;;;;;;;;;;;;;;11.94;100;100469;;;;-77
2022/12/31 12:18:48;;;;;;;;;;;;;;;11.88;100;100457.5;;;;-78
2022/12/31 12:23:45;;;;;;;;;;;;;;;11.87;100;100449.1;;;;-77
2022/12/31 12:25:19;;;;;;;10.4;1.3;;;;;;;;;;;;;-81
2022/12/31 12:28:48;;;;;;;;;;;;;;;11.82;100;100450.7;;;;-80
2022/12/31 12:33:48;;;;;;;;;;;;;;;11.78;100;100450.1;;;;-81
2022/12/31 12:53:03;;;;;;;;;;;;;;;11.81;100;100439;;;;-81
2022/12/31 12:58:11;;;;;;;;;;;;;;;;;;;;;
2022/12/31 13:08:09;;;;;;;;;;;;;;;11.85;100;100432.5;;;;-78
2022/12/31 13:13:49;;;;;;;;;;;;;;;12.01;100;100424.6;;;;-77
2022/12/31 13:16:50;;;;;;;;;;;;;;;11.93;100;100413.8;;;;-76
2022/12/31 13:21:51;;;;;;;;;;;;;;;11.98;100;100417.8;;;;-76
2022/12/31 13:25:25;;;;;;;2.3;1.1;;;;;;;;;;;;;-77
2022/12/31 13:26:51;;;;;;;;;;;;;;;12.02;100;100431.3;;;;-77
2022/12/31 13:31:48;;;;;;;;;;;;;;;12.06;100;100439.3;;;;-79
2022/12/31 13:36:49;;;;;;;;;;;;;;;12.13;100;100460.3;;;;-81
2022/12/31 13:41:55;;;;;;;;;;;;;;;12.18;100;100444.7;;;;-81
2022/12/31 13:46:51;;;;;;;;;;;;;;;12.14;100;100460.4;;;;-83
2022/12/31 13:51:51;;;;;;;;;;;;;;;12.16;100;100445.8;;;;-81
2022/12/31 13:55:25;;;;;;;3.1;1.5;;;;;;;;;;;;;-81
2022/12/31 13:56:48;;;;;;;;;;;;;;;12.19;100;100458;;;;-81
2022/12/31 14:01:51;;;;;;;;;;;;;;;12.23;100;100463.5;;;;-81
2022/12/31 14:06:54;;;;;;;;;;;;;;;12.22;100;100465.1;;;;-82
2022/12/31 14:12:01;;;;;;;;;;;;;;;12.18;100;100476;;;;-80
2022/12/31 14:16:54;;;;;;;;;;;;;;;12.18;100;100473;;;;-81
2022/12/31 14:21:53;;;;;;;;;;;;;;;12.19;100;100468.1;;;;-81
2022/12/31 14:25:24;;;;;;;4.1;1.8;;;;;;;;;;;;;-81
2022/12/31 14:26:50;;;;;;;;;;;;;;;12.19;100;100479.8;;;;-82
2022/12/31 14:31:57;;;;;;;;;;;;;;;12.15;100;100495.3;;;;-80
2022/12/31 14:36:54;;;;;;;;;;;;;;;12.14;100;100488.8;;;;-81
2022/12/31 14:41:55;;;;;;;;;;;;;;;12.11;100;100489.8;;;;-84
2022/12/31 14:46:55;;;;;;;;;;;;;;;12.07;100;100475.3;;;;-82
2022/12/31 14:51:47;;;;;;;;;;;;;;;12.06;100;100497;;;;-78
2022/12/31 14:55:35;;;;;;;9.4;1.7;;;;;;;;;;;;;-80
2022/12/31 14:56:50;;;;;;;;;;;;;;;12.02;100;100503.5;;;;-79
2022/12/31 15:01:51;;;;;;;;;;;;;;;11.99;100;100521.7;;;;-78
2022/12/31 15:06:54;;;;;;;;;;;;;;;11.97;100;100530.8;;;;-79
2022/12/31 15:11:59;;;;;;;;;;;;;;;11.95;100;100513.3;;;;-79
2022/12/31 15:16:53;;;;;;;;;;;;;;;11.9;100;100535.4;;;;-80
2022/12/31 15:21:57;;;;;;;;;;;;;;;11.89;100;100512.2;;;;-79
2022/12/31 15:25:30;;;;;;;13.1;2.2;;;;;;;;;;;;;-78
2022/12/31 15:26:50;;;;;;;;;;;;;;;11.86;100;100510.6;;;;-79
2022/12/31 15:31:51;;;;;;;;;;;;;;;11.85;100;100519.1;;;;-79
2022/12/31 15:36:54;;;;;;;;;;;;;;;11.87;100;100512.7;;;;-78
2022/12/31 15:41:48;;;;;;;;;;;;;;;11.88;100;100507.7;;;;-79
2022/12/31 15:46:48;;;;;;;;;;;;;;;11.9;100;100518.9;;;;-78
2022/12/31 15:51:51;;;;;;;;;;;;;;;11.9;100;100516.1;;;;-77
2022/12/31 15:55:28;;;;;;;10.8;2.8;;;;;;;;;;;;;-78
2022/12/31 15:56:51;;;;;;;;;;;;;;;11.91;100;100492.9;;;;-77
2022/12/31 16:01:48;;;;;;;;;;;;;;;11.88;100;100478.8;;;;-78
2022/12/31 16:06:48;;;;;;;;;;;;;;;11.88;100;100486.1;;;;-80
2022/12/31 16:11:47;;;;;;;;;;;;;;;11.87;100;100485.6;;;;-78
2022/12/31 16:16:54;;;;;;;;;;;;;;;11.87;100;100471.7;;;;-79
2022/12/31 16:21:57;;;;;;;;;;;;;;;11.86;100;100455.7;;;;-79
2022/12/31 16:25:25;;;;;;;36.1;16.3;;;;;;;;;;;;;-79
2022/12/31 16:26:49;;;;;;;;;;;;;;;11.86;100;100467.1;;;;-78
2022/12/31 16:31:48;;;;;;;;;;;;;;;11.83;100;100456.4;;;;-80
2022/12/31 16:36:56;;;;;;;;;;;;;;;11.85;100;100444.8;;;;-79
2022/12/31 16:41:47;;;;;;;;;;;;;;;11.86;100;100446.2;;;;-79
2022/12/31 16:46:47;;;;;;;;;;;;;;;11.86;100;100445.1;;;;-79
2022/12/31 16:51:48;;;;;;;;;;;;;;;11.83;100;100456.3;;;;-78
2022/12/31 16:55:27;;;;;;;15.1;5.7;;;;;;;;;;;;;-78
2022/12/31 16:56:47;;;;;;;;;;;;;;;11.86;100;100438.9;;;;-77
2022/12/31 17:01:48;;;;;;;;;;;;;;;11.83;100;100451.6;;;;-78
2022/12/31 17:06:50;;;;;;;;;;;;;;;11.83;100;100441.2;;;;-78
2022/12/31 17:11:55;;;;;;;;;;;;;;;11.8;100;100421.5;;;;-78
2022/12/31 17:16:56;;;;;;;;;;;;;;;11.78;100;100423.1;;;;-77
2022/12/31 17:21:49;;;;;;;;;;;;;;;11.77;100;100425.4;;;;-76
2022/12/31 17:25:28;;;;;;;18.4;8.6;;;;;;;;;;;;;-78
2022/12/31 17:26:47;;;;;;;;;;;;;;;11.77;100;100419.4;;;;-77
2022/12/31 17:31:57;;;;;;;;;;;;;;;11.74;100;100414.8;;;;-78
2022/12/31 17:36:55;;;;;;;;;;;;;;;11.73;100;100416.3;;;;-77
2022/12/31 17:41:50;;;;;;;;;;;;;;;11.72;100;100419.2;;;;-77
2022/12/31 17:46:50;;;;;;;;;;;;;;;11.7;100;100431.5;;;;-77
2022/12/31 17:51:47;;;;;;;;;;;;;;;11.7;100;100438.6;;;;-78
2022/12/31 17:55:28;;;;;;;19.4;8.9;;;;;;;;;;;;;-77
2022/12/31 17:56:48;;;;;;;;;;;;;;;11.71;100;100428;;;;-77
2022/12/31 18:01:47;;;;;;;;;;;;;;;11.69;100;100427.3;;;;-77
2022/12/31 18:06:47;;;;;;;;;;;;;;;11.66;100;100424.9;;;;-77
2022/12/31 18:11:48;;;;;;;;;;;;;;;11.66;100;100430.5;;;;-78
2022/12/31 18:16:47;;;;;;;;;;;;;;;11.65;100;100436.9;;;;-77
2022/12/31 18:21:49;;;;;;;;;;;;;;;11.62;100;100441.1;;;;-74
2022/12/31 18:25:30;;;;;;;17.4;6.6;;;;;;;;;;;;;-75
2022/12/31 18:26:47;;;;;;;;;;;;;;;11.62;100;100430.5;;;;-75
2022/12/31 18:31:48;;;;;;;;;;;;;;;11.61;100;100424.1;;;;-77
2022/12/31 18:36:48;;;;;;;;;;;;;;;11.57;100;100432.2;;;;-73
2022/12/31 18:41:50;;;;;;;;;;;;;;;11.58;100;100435;;;;-74
2022/12/31 18:46:47;;;;;;;;;;;;;;;11.57;100;100449.2;;;;-74
2022/12/31 18:51:51;;;;;;;;;;;;;;;11.54;100;100450.7;;;;-74
2022/12/31 18:55:35;;;;;;;18.9;6.5;;;;;;;;;;;;;-73
2022/12/31 18:56:49;;;;;;;;;;;;;;;11.54;100;100449.6;;;;-73
2022/12/31 19:01:50;;;;;;;;;;;;;;;11.54;100;100453.9;;;;-74
2022/12/31 19:06:47;;;;;;;;;;;;;;;11.54;100;100450.2;;;;-74
2022/12/31 19:11:47;;;;;;;;;;;;;;;11.54;100;100461.3;;;;-74
2022/12/31 19:16:48;;;;;;;;;;;;;;;11.51;100;100463.2;;;;-75
2022/12/31 19:21:47;;;;;;;;;;;;;;;11.51;100;100456.6;;;;-73
2022/12/31 19:25:35;;;;;;;23.7;8.9;;;;;;;;;;;;;-74
2022/12/31 19:26:47;;;;;;;;;;;;;;;11.5;100;100454.5;;;;-71
2022/12/31 19:31:47;;;;;;;;;;;;;;;11.52;100;100470.6;;;;-74
2022/12/31 19:36:47;;;;;;;;;;;;;;;11.51;100;100456.2;;;;-74
2022/12/31 19:41:48;;;;;;;;;;;;;;;11.53;100;100484;;;;-77
2022/12/31 19:46:48;;;;;;;;;;;;;;;11.56;100;100477.6;;;;-76
2022/12/31 19:51:47;;;;;;;;;;;;;;;11.58;100;100488;;;;-79
2022/12/31 19:55:35;;;;;;;34.7;16.1;;;;;;;;;;;;;-77
2022/12/31 19:56:47;;;;;;;;;;;;;;;11.56;100;100501;;;;-76
2022/12/31 20:01:47;;;;;;;;;;;;;;;11.58;100;100500;;;;-77
2022/12/31 20:06:47;;;;;;;;;;;;;;;11.58;100;100505;;;;-77
2022/12/31 20:11:47;;;;;;;;;;;;;;;11.59;100;100509.1;;;;-77
2022/12/31 20:16:49;;;;;;;;;;;;;;;11.61;100;100522.3;;;;-76
2022/12/31 20:21:47;;;;;;;;;;;;;;;11.62;100;100526.9;;;;-75
2022/12/31 20:25:35;;;;;;;24.6;9.8;;;;;;;;;;;;;-77
2022/12/31 20:26:47;;;;;;;;;;;;;;;11.61;100;100523.9;;;;-77
2022/12/31 20:31:47;;;;;;;;;;;;;;;11.63;100;100527.3;;;;-78
2022/12/31 20:36:47;;;;;;;;;;;;;;;11.66;100;100520.7;;;;-76
2022/12/31 20:41:49;;;;;;;;;;;;;;;11.64;100;100509.5;;;;-77
2022/12/31 20:46:47;;;;;;;;;;;;;;;11.64;100;100513.7;;;;-76
2022/12/31 20:51:47;;;;;;;;;;;;;;;11.65;100;100518.1;;;;-75
2022/12/31 20:55:39;;;;;;;18.6;7.5;;;;;;;;;;;;;-77
2022/12/31 20:56:47;;;;;;;;;;;;;;;11.68;100;100524.3;;;;-76
2022/12/31 21:01:47;;;;;;;;;;;;;;;11.63;100;100527;;;;-78
2022/12/31 21:06:51;;;;;;;;;;;;;;;11.66;100;100515.5;;;;-75
2022/12/31 21:16:47;;;;;;;;;;;;;;;11.71;100;100511.2;;;;-77
2022/12/31 21:21:50;;;;;;;;;;;;;;;11.71;100;100530.7;;;;-76
2022/12/31 21:25:38;;;;;;;70.9;31.7;;;;;;;;;;;;;-77
2022/12/31 21:26:47;;;;;;;;;;;;;;;11.73;100;100523.4;;;;-76
2022/12/31 21:31:48;;;;;;;;;;;;;;;11.75;99.8418;100534.6;;;;-76
2022/12/31 21:36:47;;;;;;;;;;;;;;;11.78;99.79297;100555;;;;-76
2022/12/31 21:41:54;;;;;;;;;;;;;;;11.79;99.83887;100557.2;;;;-77
2022/12/31 21:46:47;;;;;;;;;;;;;;;11.82;100;100523.3;;;;-75
2022/12/31 21:56:47;;;;;;;;;;;;;;;11.94;98.87891;100535.8;;;;-76
2022/12/31 22:06:47;;;;;;;;;;;;;;;11.96;97.88086;100548.6;;;;-76
2022/12/31 22:11:47;;;;;;;;;;;;;;;12.02;96.57813;100543;;;;-76
2022/12/31 22:16:47;;;;;;;;;;;;;;;12.01;96.25586;100544.3;;;;-78
2022/12/31 22:21:47;;;;;;;;;;;;;;;12.04;95.9082;100543.6;;;;-73
2022/12/31 22:25:41;;;;;;;23.5;8.7;;;;;;;;;;;;;-74
2022/12/31 22:26:47;;;;;;;;;;;;;;;12.05;95.71191;100552.4;;;;-74
2022/12/31 22:31:48;;;;;;;;;;;;;;;12.06;94.98438;100558.6;;;;-73
2022/12/31 22:36:47;;;;;;;;;;;;;;;12.05;95.34863;100571.5;;;;-74
2022/12/31 22:41:47;;;;;;;;;;;;;;;12.06;94.8418;100582.9;;;;-74
2022/12/31 22:46:48;;;;;;;;;;;;;;;12.06;94.94141;100571.5;;;;-73
2022/12/31 22:51:47;;;;;;;;;;;;;;;12.04;95.31348;100571.8;;;;-73
2022/12/31 22:55:45;;;;;;;15.1;6.7;;;;;;;;;;;;;-73
2022/12/31 22:56:47;;;;;;;;;;;;;;;12.06;95.4707;100588.9;;;;-73
2022/12/31 23:01:47;;;;;;;;;;;;;;;12.02;96.09277;100594;;;;-72
2022/12/31 23:06:47;;;;;;;;;;;;;;;11.96;97.10547;100603.9;;;;-73
2022/12/31 23:11:47;;;;;;;;;;;;;;;11.88;97.58594;100595.1;;;;-73
2022/12/31 23:25:45;;;;;;;123.5;63.4;;;;;;;;;;;;;-73
2022/12/31 23:26:47;;;;;;;;;;;;;;;11.79;97.48926;100610.9;;;;-73
2022/12/31 23:31:47;;;;;;;;;;;;;;;11.81;97.31641;100632.9;;;;-72
2022/12/31 23:36:47;;;;;;;;;;;;;;;11.78;97.43164;100627.4;;;;-72
2022/12/31 23:41:47;;;;;;;;;;;;;;;11.82;96.84375;100628.5;;;;-73
2022/12/31 23:46:47;;;;;;;;;;;;;;;11.83;97.19922;100628.5;;;;-72
2022/12/31 23:51:47;;;;;;;;;;;;;;;11.87;97.41699;100642.2;;;;-73
2022/12/31 23:55:45;;;;;;;115.5;60.8;;;;;;;;;;;;;-73
2022/12/31 23:56:47;;;;;;;;;;;;;;;11.91;97.26172;100632.4;;;;-74
